Time;durP1;ratioP1;P1;durP2;ratioP2;P2;SDS_P1;SDS_P2;PMS_P1;PMS_P2;Temp;Humidity;BMP_temperature;BMP_pressure;BME280_temperature;BME280_humidity;BME280_pressure;Samples;Min_cycle;Max_cycle;Signal;HPM_P1;HPM_P2
2022/07/17 00:02:12;;;;;;;2.90;2.22;;;;;;;21.46;100.00;99613.53;1812110;78;20998;-66
2022/07/17 00:04:38;;;;;;;5.62;2.20;;;;;;;21.48;100.00;99620.92;1812540;78;21333;-67
2022/07/17 00:07:05;;;;;;;3.77;2.37;;;;;;;21.58;100.00;99619.39;1789795;78;21521;-71
2022/07/17 00:09:32;;;;;;;3.42;1.90;;;;;;;21.45;100.00;99615.52;1796879;78;21073;-70
2022/07/17 00:11:58;;;;;;;5.55;2.83;;;;;;;21.44;100.00;99607.51;1812096;78;21030;-69
2022/07/17 00:14:25;;;;;;;4.42;2.27;;;;;;;21.39;100.00;99611.49;1812344;78;21422;-69
2022/07/17 00:16:53;;;;;;;6.62;2.22;;;;;;;21.37;100.00;99619.48;1812726;78;21455;-70
2022/07/17 00:19:20;;;;;;;6.45;2.35;;;;;;;21.38;100.00;99617.69;1813608;78;21061;-70
2022/07/17 00:21:47;;;;;;;7.37;2.30;;;;;;;21.38;100.00;99610.68;1812260;78;20974;-71
2022/07/17 00:24:19;;;;;;;5.97;2.47;;;;;;;21.31;100.00;99609.23;1749290;81;21056;-70
2022/07/17 00:26:47;;;;;;;4.25;2.15;;;;;;;21.29;100.00;99596.20;1745973;81;21029;-69
2022/07/17 00:29:14;;;;;;;4.95;2.15;;;;;;;21.31;100.00;99598.64;1746960;81;21032;-68
2022/07/17 00:31:43;;;;;;;2.83;2.05;;;;;;;21.27;100.00;99606.41;1745951;81;21163;-70
2022/07/17 00:34:13;;;;;;;3.58;2.00;;;;;;;21.32;100.00;99598.25;1730202;81;21080;-68
2022/07/17 00:36:40;;;;;;;4.05;2.35;;;;;;;21.33;100.00;99599.03;1744296;81;21045;-70
2022/07/17 00:39:07;;;;;;;5.25;2.35;;;;;;;21.27;100.00;99581.81;1813355;78;20976;-69
2022/07/17 00:41:34;;;;;;;8.18;2.47;;;;;;;21.14;100.00;99582.14;1811144;78;21041;-66
2022/07/17 00:44:11;;;;;;;6.33;2.05;;;;;;;21.11;100.00;99585.72;1756022;81;21123;-69
2022/07/17 00:46:40;;;;;;;7.20;2.20;;;;;;;21.09;100.00;99593.70;1750526;81;21025;-71
2022/07/17 00:49:07;;;;;;;7.85;2.22;;;;;;;21.11;100.00;99603.93;1749072;81;21011;-70
2022/07/17 00:51:34;;;;;;;3.45;2.37;;;;;;;21.15;100.00;99610.34;1746441;81;21037;-68
2022/07/17 00:54:00;;;;;;;2.45;1.62;;;;;;;21.16;100.00;99611.97;1755207;80;21033;-71
2022/07/17 00:56:29;;;;;;;6.50;1.80;;;;;;;21.13;100.00;99604.94;1761745;80;21238;-68
2022/07/17 00:58:58;;;;;;;6.20;2.85;;;;;;;21.15;100.00;99590.73;1821980;78;21064;-69
2022/07/17 01:01:24;;;;;;;4.20;2.10;;;;;;;21.08;100.00;99586.52;1817708;78;21050;-69
2022/07/17 01:03:53;;;;;;;3.17;1.98;;;;;;;21.03;100.00;99588.28;1733525;80;21009;-68
2022/07/17 01:06:20;;;;;;;4.58;2.20;;;;;;;21.02;100.00;99593.66;1820346;78;20982;-69
2022/07/17 01:08:49;;;;;;;6.60;2.47;;;;;;;20.97;100.00;99594.83;1821092;78;21119;-70
2022/07/17 01:11:15;;;;;;;11.15;2.72;;;;;;;20.99;100.00;99597.23;1823390;78;21105;-68
2022/07/17 01:13:42;;;;;;;5.47;2.37;;;;;;;21.00;100.00;99583.46;1820916;78;20986;-71
2022/07/17 01:16:10;;;;;;;3.00;2.00;;;;;;;20.98;100.00;99585.26;1822364;78;21049;-69
2022/07/17 01:18:37;;;;;;;5.75;2.02;;;;;;;20.98;100.00;99578.84;1822564;78;20966;-69
2022/07/17 01:21:06;;;;;;;5.35;2.20;;;;;;;21.03;100.00;99582.06;1822958;78;21030;-68
2022/07/17 01:23:33;;;;;;;4.12;2.80;;;;;;;21.13;100.00;99573.54;1821863;78;20987;-69
2022/07/17 01:25:59;;;;;;;3.87;2.25;;;;;;;21.19;100.00;99571.15;1812819;78;21019;-68
2022/07/17 01:28:25;;;;;;;6.12;2.02;;;;;;;21.20;100.00;99578.38;1819365;78;22037;-68
2022/07/17 01:30:55;;;;;;;3.70;2.17;;;;;;;21.07;100.00;99574.30;1821224;78;21534;-68
2022/07/17 01:33:22;;;;;;;5.28;2.15;;;;;;;21.10;100.00;99577.09;1817919;78;21768;-70
2022/07/17 01:35:50;;;;;;;4.10;2.12;;;;;;;21.14;100.00;99570.94;1820642;78;21486;-70
2022/07/17 01:38:18;;;;;;;5.65;2.02;;;;;;;21.11;100.00;99570.32;1819665;78;21502;-69
2022/07/17 01:40:46;;;;;;;3.25;2.00;;;;;;;21.07;100.00;99574.30;1818508;78;21001;-67
2022/07/17 01:43:14;;;;;;;3.22;2.00;;;;;;;20.96;100.00;99575.63;1795790;78;21009;-70
2022/07/17 01:45:40;;;;;;;6.10;2.35;;;;;;;20.94;100.00;99575.20;1819875;78;21226;-69
2022/07/17 01:48:07;;;;;;;4.08;2.33;;;;;;;21.01;100.00;99576.66;1819955;78;20979;-71
2022/07/17 01:50:35;;;;;;;3.10;1.60;;;;;;;21.00;100.00;99588.45;1819483;78;21462;-69
2022/07/17 01:53:02;;;;;;;4.78;2.20;;;;;;;21.08;100.00;99575.31;1732008;82;21045;-68
2022/07/17 01:55:28;;;;;;;5.20;2.27;;;;;;;21.08;100.00;99583.71;1732813;81;20990;-70
2022/07/17 01:57:56;;;;;;;3.62;2.40;;;;;;;21.08;100.00;99580.91;1731018;82;21559;-70
2022/07/17 02:00:25;;;;;;;5.80;2.00;;;;;;;21.00;100.00;99577.86;1728662;82;21454;-68
2022/07/17 02:02:52;;;;;;;3.40;2.33;;;;;;;20.90;100.00;99591.36;1728820;82;21081;-69
2022/07/17 02:05:20;;;;;;;5.37;2.47;;;;;;;21.07;100.00;99593.91;1728504;82;21054;-69
2022/07/17 02:07:47;;;;;;;7.20;2.27;;;;;;;21.09;100.00;99583.91;1730212;82;21503;-70
2022/07/17 02:10:16;;;;;;;3.83;2.35;;;;;;;20.97;100.00;99592.03;1718814;82;21510;-69
2022/07/17 02:12:43;;;;;;;5.95;2.77;;;;;;;20.97;100.00;99589.82;1752704;81;21053;-71
2022/07/17 02:15:10;;;;;;;4.22;2.30;;;;;;;20.92;100.00;99588.98;1746468;81;21041;-67
2022/07/17 02:17:38;;;;;;;3.00;2.20;;;;;;;21.01;100.00;99571.87;1746745;81;21545;-69
2022/07/17 02:20:08;;;;;;;4.70;2.65;;;;;;;21.02;100.00;99576.85;1748632;81;21509;-68
2022/07/17 02:22:36;;;;;;;3.62;2.47;;;;;;;20.97;100.00;99580.02;1726899;81;21110;-68
2022/07/17 02:25:06;;;;;;;8.05;2.70;;;;;;;20.96;100.00;99573.64;1744184;81;21545;-70
2022/07/17 02:27:34;;;;;;;3.65;2.37;;;;;;;20.95;100.00;99567.03;1750295;81;21024;-67
2022/07/17 02:30:16;;;;;;;6.10;2.60;;;;;;;20.96;100.00;99562.44;1727672;81;21111;-69
2022/07/17 02:32:44;;;;;;;6.78;3.30;;;;;;;20.96;100.00;99557.42;1749909;81;20993;-68
2022/07/17 02:35:11;;;;;;;4.60;2.85;;;;;;;20.92;100.00;99565.18;1745151;81;21970;-69
2022/07/17 02:37:38;;;;;;;4.53;2.22;;;;;;;20.89;100.00;99569.35;1747148;81;21549;-68
2022/07/17 02:40:09;;;;;;;4.50;3.12;;;;;;;20.90;100.00;99581.56;1745593;81;21621;-68
2022/07/17 02:42:37;;;;;;;3.60;2.27;;;;;;;20.90;100.00;99584.36;1745977;81;21491;-70
2022/07/17 02:45:06;;;;;;;6.47;2.17;;;;;;;20.92;100.00;99578.37;1741669;81;21616;-69
2022/07/17 02:47:35;;;;;;;5.10;2.40;;;;;;;20.89;100.00;99565.16;1750965;81;21778;-68
2022/07/17 02:50:05;;;;;;;8.85;2.92;;;;;;;20.83;100.00;99556.30;1746165;81;21076;-68
2022/07/17 02:52:32;;;;;;;5.17;2.62;;;;;;;20.80;100.00;99559.89;1744648;81;21548;-68
2022/07/17 02:54:59;;;;;;;3.30;2.52;;;;;;;20.79;100.00;99559.69;1743196;81;21485;-70
2022/07/17 02:57:29;;;;;;;3.70;2.47;;;;;;;20.78;100.00;99567.86;1743383;81;20998;-68
2022/07/17 02:59:56;;;;;;;8.38;3.10;;;;;;;20.78;100.00;99567.86;1746764;82;21128;-70
2022/07/17 03:02:24;;;;;;;7.58;3.10;;;;;;;20.80;100.00;99557.09;1822936;78;21435;-68
2022/07/17 03:04:52;;;;;;;5.47;3.00;;;;;;;20.78;100.00;99551.07;1822931;78;21534;-70
2022/07/17 03:07:18;;;;;;;4.97;2.72;;;;;;;20.54;100.00;99568.69;1766639;80;20992;-67
2022/07/17 03:09:48;;;;;;;3.25;2.30;;;;;;;20.50;100.00;99570.67;1812275;76;21102;-67
2022/07/17 03:12:14;;;;;;;6.58;2.72;;;;;;;20.50;100.00;99588.27;1821704;78;21485;-67
2022/07/17 03:14:43;;;;;;;6.25;2.58;;;;;;;20.48;100.00;99575.25;1819292;78;20986;-70
2022/07/17 03:17:10;;;;;;;4.35;2.87;;;;;;;20.75;100.00;99547.66;1820436;78;21037;-69
2022/07/17 03:19:38;;;;;;;7.00;2.62;;;;;;;20.73;100.00;99566.23;1822671;78;20972;-69
2022/07/17 03:22:05;;;;;;;5.12;2.67;;;;;;;20.74;100.00;99580.47;1734978;82;21050;-69
2022/07/17 03:24:34;;;;;;;5.28;2.65;;;;;;;20.77;100.00;99578.87;1732425;82;21144;-67
2022/07/17 03:27:01;;;;;;;5.20;3.05;;;;;;;20.78;100.00;99578.48;1732155;81;21002;-69
2022/07/17 03:29:28;;;;;;;2.83;2.15;;;;;;;20.78;100.00;99576.27;1736754;82;21045;-67
2022/07/17 03:31:55;;;;;;;5.65;2.45;;;;;;;20.80;100.00;99567.70;1819995;78;21022;-68
2022/07/17 03:34:22;;;;;;;6.20;2.55;;;;;;;20.87;100.00;99564.73;1821939;78;21013;-70
2022/07/17 03:36:48;;;;;;;6.70;2.67;;;;;;;20.84;100.00;99563.53;1768282;80;21524;-69
2022/07/17 03:39:15;;;;;;;6.90;2.75;;;;;;;20.83;100.00;99566.72;1819340;78;20990;-67
2022/07/17 03:41:45;;;;;;;4.97;2.70;;;;;;;20.82;100.00;99567.31;1820709;78;21496;-69
2022/07/17 03:44:15;;;;;;;6.72;2.92;;;;;;;20.82;100.00;99563.11;1817334;78;21518;-69
2022/07/17 03:46:42;;;;;;;7.72;2.80;;;;;;;20.84;100.00;99560.73;1818350;78;21029;-68
2022/07/17 03:49:10;;;;;;;6.25;2.70;;;;;;;20.87;100.00;99563.33;1817971;76;21156;-68
2022/07/17 03:51:39;;;;;;;9.33;3.22;;;;;;;20.86;100.00;99568.73;1820821;76;21076;-67
2022/07/17 03:54:05;;;;;;;4.70;2.80;;;;;;;20.80;100.00;99566.89;1819752;76;21030;-72
2022/07/17 03:56:32;;;;;;;8.50;3.42;;;;;;;20.81;100.00;99567.11;1818522;76;21041;-68
2022/07/17 03:58:59;;;;;;;6.87;3.08;;;;;;;20.69;100.00;99566.83;1813655;77;21089;-69
2022/07/17 04:01:25;;;;;;;10.70;2.92;;;;;;;20.93;100.00;99567.42;1806718;77;21253;-70
2022/07/17 04:03:52;;;;;;;5.33;2.72;;;;;;;20.70;100.00;99565.63;1821044;77;21018;-71
2022/07/17 04:06:18;;;;;;;10.15;3.47;;;;;;;20.43;100.00;99569.43;1783252;78;21002;-67
2022/07/17 04:08:45;;;;;;;4.28;3.17;;;;;;;20.55;100.00;99571.12;1810169;77;21101;-68
2022/07/17 04:11:13;;;;;;;6.70;3.20;;;;;;;20.71;100.00;99567.84;1809502;77;20974;-70
2022/07/17 04:13:39;;;;;;;7.75;3.40;;;;;;;20.74;100.00;99566.47;1821013;77;21718;-69
2022/07/17 04:16:06;;;;;;;5.78;3.25;;;;;;;20.82;100.00;99571.50;1812073;77;21006;-69
2022/07/17 04:18:35;;;;;;;6.35;3.70;;;;;;;20.79;100.00;99573.10;1820777;77;21489;-69
2022/07/17 04:21:05;;;;;;;6.67;3.37;;;;;;;20.86;100.00;99574.34;1809448;77;21045;-68
2022/07/17 04:23:33;;;;;;;5.85;3.52;;;;;;;20.65;100.00;99585.58;1819954;77;21033;-68
2022/07/17 04:26:01;;;;;;;6.75;3.40;;;;;;;20.58;100.00;99579.91;1813457;77;21106;-69
2022/07/17 04:28:27;;;;;;;4.72;2.60;;;;;;;20.89;100.00;99579.15;1812550;77;21065;-68
2022/07/17 04:30:54;;;;;;;4.03;2.85;;;;;;;20.98;100.00;99583.05;1813526;77;21093;-70
2022/07/17 04:33:20;;;;;;;4.75;2.40;;;;;;;20.81;100.00;99578.31;1818065;77;21029;-68
2022/07/17 04:35:47;;;;;;;7.53;2.87;;;;;;;20.91;100.00;99582.37;1815448;77;21101;-69
2022/07/17 04:38:15;;;;;;;5.35;2.27;;;;;;;21.08;100.00;99576.71;1809270;77;21097;-68
2022/07/17 04:40:41;;;;;;;4.72;2.30;;;;;;;21.13;100.00;99563.73;1817918;77;21117;-68
2022/07/17 04:43:08;;;;;;;4.72;2.25;;;;;;;21.31;100.00;99561.61;1818524;77;21042;-70
2022/07/17 04:45:34;;;;;;;8.00;2.50;;;;;;;21.50;100.00;99551.27;1817144;77;21131;-73
2022/07/17 04:48:04;;;;;;;5.67;2.42;;;;;;;21.60;100.00;99547.71;1815629;77;21073;-68
2022/07/17 04:50:33;;;;;;;5.87;2.22;;;;;;;21.68;100.00;99561.76;1817183;77;21054;-71
2022/07/17 04:53:01;;;;;;;5.65;2.02;;;;;;;21.81;100.00;99563.62;1815118;77;21030;-71
2022/07/17 04:55:28;;;;;;;3.33;1.98;;;;;;;21.81;100.00;99558.02;1816802;77;21037;-69
2022/07/17 04:57:54;;;;;;;5.42;2.12;;;;;;;21.85;100.00;99556.81;1829102;76;21503;-70
2022/07/17 05:00:21;;;;;;;10.38;2.85;;;;;;;21.87;100.00;99554.42;1834221;76;21010;-68
2022/07/17 05:02:48;;;;;;;5.75;1.82;;;;;;;22.01;100.00;99555.05;1835878;76;21759;-71
2022/07/17 05:05:16;;;;;;;5.12;2.25;;;;;;;21.99;100.00;99551.84;1819948;76;21502;-68
2022/07/17 05:07:44;;;;;;;4.40;1.87;;;;;;;22.03;100.00;99554.66;1829291;76;20990;-70
2022/07/17 05:10:11;;;;;;;8.25;2.22;;;;;;;22.00;100.00;99550.66;1833534;76;21032;-68
2022/07/17 05:12:38;;;;;;;4.67;2.20;;;;;;;22.09;100.00;99555.86;1792476;76;21075;-67
2022/07/17 05:15:06;;;;;;;2.92;2.10;;;;;;;22.06;100.00;99560.08;1826508;76;21866;-67
2022/07/17 05:17:35;;;;;;;4.78;2.42;;;;;;;22.05;100.00;99558.46;1842511;76;21040;-68
2022/07/17 05:20:02;;;;;;;5.97;2.33;;;;;;;22.03;100.00;99550.45;1842830;76;20997;-69
2022/07/17 05:22:29;;;;;;;6.42;1.90;;;;;;;21.97;100.00;99550.03;1839557;76;21533;-68
2022/07/17 05:24:56;;;;;;;4.40;2.00;;;;;;;22.00;100.00;99549.25;1825814;76;21026;-69
2022/07/17 05:27:23;;;;;;;6.65;1.70;;;;;;;22.02;100.00;99540.44;1847154;76;21283;-66
2022/07/17 05:29:51;;;;;;;4.90;2.02;;;;;;;22.08;100.00;99533.81;1739174;80;21473;-67
2022/07/17 05:32:19;;;;;;;7.53;2.45;;;;;;;22.09;100.00;99532.02;1835897;76;21120;-69
2022/07/17 05:34:47;;;;;;;2.67;2.20;;;;;;;22.13;100.00;99527.22;1836375;76;21052;-67
2022/07/17 05:37:14;;;;;;;3.98;1.90;;;;;;;22.17;100.00;99520.81;1822003;76;21354;-71
2022/07/17 05:39:43;;;;;;;7.25;2.17;;;;;;;22.22;100.00;99532.44;1823815;76;21145;-70
2022/07/17 05:42:11;;;;;;;5.50;2.20;;;;;;;22.22;100.00;99545.06;1825988;76;21229;-70
2022/07/17 05:44:39;;;;;;;7.10;2.02;;;;;;;22.33;100.00;99545.05;1762026;80;21049;-67
2022/07/17 05:47:05;;;;;;;6.10;2.00;;;;;;;22.25;100.00;99542.86;1819991;76;21376;-69
2022/07/17 05:49:33;;;;;;;7.35;2.35;;;;;;;22.23;100.00;99537.44;1818525;77;21037;-68
2022/07/17 05:51:59;;;;;;;7.37;1.95;;;;;;;22.21;100.00;99537.83;1821985;78;21692;-67
2022/07/17 05:54:26;;;;;;;4.08;1.95;;;;;;;22.13;100.00;99533.42;1738320;81;20966;-67
2022/07/17 05:56:53;;;;;;;5.22;1.92;;;;;;;22.09;100.00;99554.45;1739696;80;21589;-70
2022/07/17 05:59:20;;;;;;;3.83;1.57;;;;;;;22.04;100.00;99553.44;1725924;80;21617;-69
2022/07/17 06:01:48;;;;;;;5.85;2.17;;;;;;;21.98;100.00;99560.06;1729161;80;21006;-69
2022/07/17 06:04:18;;;;;;;6.45;2.50;;;;;;;21.98;100.00;99561.47;1766747;80;21199;-69
2022/07/17 06:06:44;;;;;;;5.60;1.85;;;;;;;21.97;100.00;99568.88;1758637;80;21240;-69
2022/07/17 06:09:10;;;;;;;6.03;2.10;;;;;;;21.92;100.00;99571.45;1757203;80;21053;-71
2022/07/17 06:11:38;;;;;;;5.20;2.15;;;;;;;21.85;100.00;99575.03;1764987;79;21078;-67
2022/07/17 06:14:05;;;;;;;8.00;2.58;;;;;;;21.81;100.00;99572.03;1763860;80;21093;-67
2022/07/17 06:16:33;;;;;;;8.65;2.62;;;;;;;21.78;100.00;99580.62;1761301;80;21014;-67
2022/07/17 06:19:02;;;;;;;5.72;2.52;;;;;;;21.80;100.00;99588.07;1760328;79;20994;-70
2022/07/17 06:21:29;;;;;;;4.90;2.65;;;;;;;21.83;100.00;99585.88;1757010;80;21491;-70
2022/07/17 06:23:55;;;;;;;3.65;2.17;;;;;;;21.79;100.00;99585.05;1759744;80;20963;-71
2022/07/17 06:26:22;;;;;;;6.72;2.75;;;;;;;21.81;100.00;99588.27;1738496;80;21612;-68
2022/07/17 06:28:49;;;;;;;2.87;1.92;;;;;;;21.80;100.00;99590.88;1736673;80;21458;-68
2022/07/17 06:31:16;;;;;;;4.17;2.02;;;;;;;21.74;100.00;99594.62;1732908;80;20986;-74
2022/07/17 06:33:44;;;;;;;3.98;1.60;;;;;;;21.55;100.00;99597.14;1734262;80;21026;-68
2022/07/17 06:36:11;;;;;;;4.85;2.10;;;;;;;21.37;100.00;99604.88;1735842;80;21077;-70
2022/07/17 06:38:38;;;;;;;9.70;1.50;;;;;;;21.25;100.00;99602.41;1743572;81;21119;-70
2022/07/17 06:41:05;;;;;;;4.03;1.72;;;;;;;21.30;100.00;99604.84;1738313;80;22798;-70
2022/07/17 06:43:32;;;;;;;5.45;1.67;;;;;;;21.13;100.00;99614.16;1814954;77;21011;-66
2022/07/17 06:46:00;;;;;;;3.75;1.45;;;;;;;21.18;100.00;99620.56;1811821;77;21057;-69
2022/07/17 06:48:30;;;;;;;3.77;1.90;;;;;;;21.00;100.00;99629.05;1808052;77;21030;-70
2022/07/17 06:50:59;;;;;;;5.83;1.47;;;;;;;20.87;100.00;99631.34;1810377;77;20982;-68
2022/07/17 06:53:25;;;;;;;2.70;1.50;;;;;;;20.76;100.00;99628.44;1813243;77;21097;-68
2022/07/17 06:55:52;;;;;;;2.30;1.40;;;;;;;20.64;100.00;99623.95;1807174;77;21057;-69
2022/07/17 06:58:20;;;;;;;2.75;1.40;;;;;;;20.47;100.00;99629.59;1823266;76;21053;-67
2022/07/17 07:00:46;;;;;;;3.10;1.42;;;;;;;20.37;100.00;99639.49;1821749;76;21049;-70
2022/07/17 07:03:13;;;;;;;4.10;1.50;;;;;;;20.38;100.00;99643.11;1824821;76;21002;-70
2022/07/17 07:05:40;;;;;;;4.80;1.60;;;;;;;20.31;100.00;99642.44;1822374;76;21903;-66
2022/07/17 07:10:47;;;;;;;3.10;1.60;;;;;;;20.54;100.00;99648.44;1825419;76;20976;-70
2022/07/17 07:13:13;;;;;;;2.62;1.40;;;;;;;20.55;100.00;99653.67;1822094;76;21490;-70
2022/07/17 07:15:42;;;;;;;7.12;1.82;;;;;;;20.58;100.00;99649.29;1817545;76;22206;-70
2022/07/17 07:18:09;;;;;;;7.65;1.40;;;;;;;20.76;100.00;99664.83;1831774;76;21854;-68
2022/07/17 07:20:35;;;;;;;9.88;2.30;;;;;;;20.75;100.00;99657.64;1826633;76;21096;-68
2022/07/17 07:23:03;;;;;;;4.58;1.90;;;;;;;20.67;100.00;99655.97;1823763;76;21065;-70
2022/07/17 07:25:30;;;;;;;3.45;1.55;;;;;;;20.40;100.00;99663.90;1824283;76;20982;-72
2022/07/17 07:27:57;;;;;;;4.83;1.37;;;;;;;20.22;100.00;99656.73;1820781;76;21016;-72
2022/07/17 07:30:24;;;;;;;4.83;1.72;;;;;;;20.12;100.00;99656.02;1770263;80;21886;-71
2022/07/17 07:32:52;;;;;;;6.00;2.00;;;;;;;20.15;100.00;99647.67;1759407;80;21107;-69
2022/07/17 07:35:22;;;;;;;4.97;1.52;;;;;;;19.98;100.00;99653.85;1758552;79;21096;-74
2022/07/17 07:37:52;;;;;;;5.05;1.82;;;;;;;19.88;100.00;99660.31;1775326;79;20986;-72
2022/07/17 07:40:19;;;;;;;4.10;1.57;;;;;;;19.94;100.00;99660.18;1774523;79;21047;-71
2022/07/17 07:42:47;;;;;;;8.55;2.40;;;;;;;20.02;100.00;99665.87;1735715;81;21205;-67
2022/07/17 07:45:16;;;;;;;5.40;2.27;;;;;;;20.21;100.00;99671.91;1753023;81;21005;-71
2022/07/17 07:47:44;;;;;;;5.33;1.98;;;;;;;20.33;100.00;99671.42;1762108;80;21047;-69
2022/07/17 07:50:15;;;;;;;5.83;2.47;;;;;;;20.45;100.00;99677.34;1774313;80;21052;-69
2022/07/17 07:52:43;;;;;;;3.52;2.20;;;;;;;20.46;100.00;99665.77;1788306;79;21065;-71
2022/07/17 07:55:12;;;;;;;6.87;2.22;;;;;;;20.56;100.00;99667.05;1793377;78;21043;-68
2022/07/17 07:57:39;;;;;;;6.00;2.58;;;;;;;20.65;100.00;99665.34;1770526;80;21032;-72
2022/07/17 08:00:08;;;;;;;5.05;2.20;;;;;;;20.64;100.00;99658.15;1764522;79;21060;-71
2022/07/17 08:02:37;;;;;;;2.58;1.75;;;;;;;20.63;100.00;99658.73;1765945;79;21053;-72
2022/07/17 08:05:06;;;;;;;4.20;1.75;;;;;;;20.64;100.00;99663.13;1764794;80;21077;-68
2022/07/17 08:07:38;;;;;;;3.77;1.90;;;;;;;20.71;100.00;99664.40;1755736;79;21141;-70
2022/07/17 08:10:05;;;;;;;5.35;1.72;;;;;;;20.87;100.00;99668.32;1765214;79;21017;-68
2022/07/17 08:12:33;;;;;;;4.55;1.98;;;;;;;21.01;100.00;99668.48;1760549;79;21032;-68
2022/07/17 08:14:59;;;;;;;4.05;1.65;;;;;;;21.09;100.00;99665.13;1757529;79;20985;-68
2022/07/17 08:17:30;;;;;;;3.25;1.72;;;;;;;21.21;100.00;99675.21;1764304;79;21073;-70
2022/07/17 08:19:58;;;;;;;2.30;1.52;;;;;;;21.14;100.00;99672.35;1746031;81;21063;-70
2022/07/17 08:22:25;;;;;;;3.58;2.02;;;;;;;21.13;100.00;99670.76;1763510;79;21531;-73
2022/07/17 08:24:51;;;;;;;2.05;1.47;;;;;;;21.16;100.00;99666.59;1768957;79;21127;-70
2022/07/17 08:27:22;;;;;;;2.60;1.47;;;;;;;21.24;100.00;99668.83;1753919;81;21091;-71
2022/07/17 08:29:51;;;;;;;3.15;1.55;;;;;;;21.32;100.00;99658.48;1768747;79;20917;-69
2022/07/17 08:32:19;;;;;;;3.67;1.50;;;;;;;21.12;100.00;99660.14;1759624;79;21586;-69
2022/07/17 08:34:48;;;;;;;6.08;2.33;;;;;;;21.16;100.00;99660.98;1770205;79;21006;-72
2022/07/17 08:37:19;;;;;;;4.60;1.50;;;;;;;21.34;100.00;99656.08;1754205;81;21033;-69
2022/07/17 08:39:48;;;;;;;5.62;1.25;;;;;;;21.62;100.00;99662.23;1773103;79;21040;-70
2022/07/17 08:42:16;;;;;;;3.27;1.17;;;;;;;21.76;100.00;99655.31;1755117;79;21146;-70
2022/07/17 08:44:44;;;;;;;1.52;1.10;;;;;;;21.81;100.00;99655.55;1761478;79;21221;-72
2022/07/17 08:47:12;;;;;;;2.58;1.02;;;;;;;21.99;100.00;99659.81;1762351;79;21052;-67
2022/07/17 08:49:46;;;;;;;4.03;1.10;;;;;;;21.98;100.00;99654.02;1749244;79;21020;-69
2022/07/17 08:52:15;;;;;;;2.35;0.70;;;;;;;21.97;100.00;99654.41;1750182;79;21076;-68
2022/07/17 08:54:44;;;;;;;1.60;0.90;;;;;;;22.03;100.00;99658.43;1755114;79;21131;-70
2022/07/17 08:57:13;;;;;;;1.17;0.88;;;;;;;22.13;100.00;99647.84;1760184;79;21786;-71
2022/07/17 08:59:41;;;;;;;1.17;0.70;;;;;;;22.24;100.00;99649.28;1746079;79;21039;-73
2022/07/17 09:02:09;;;;;;;1.52;0.80;;;;;;;22.33;100.00;99641.86;1764555;79;21403;-69
2022/07/17 09:04:38;;;;;;;0.80;0.68;;;;;;;22.58;100.00;99641.11;1787840;79;21035;-69
2022/07/17 09:07:07;;;;;;;2.80;1.12;;;;;;;22.59;100.00;99645.52;1672362;83;21261;-70
2022/07/17 09:09:35;;;;;;;5.87;0.95;;;;;;;22.59;100.00;99638.49;1789567;79;21277;-72
2022/07/17 09:12:04;;;;;;;5.37;0.93;;;;;;;22.59;100.00;99641.30;1789827;79;21039;-73
2022/07/17 09:14:40;;;;;;;2.87;1.00;;;;;;;22.72;100.00;99635.33;1789396;79;20999;-69
2022/07/17 09:17:09;;;;;;;2.52;1.00;;;;;;;22.72;100.00;99633.92;1713023;82;21074;-72
2022/07/17 09:19:49;;;;;;;1.23;0.80;;;;;;;22.66;100.00;99631.30;1788276;79;21019;-68
2022/07/17 09:22:22;;;;;;;0.62;0.62;;;;;;;22.88;100.00;99629.91;1787458;79;21164;-71
2022/07/17 09:24:55;;;;;;;1.45;0.90;;;;;;;22.88;93.06;99626.48;1787379;79;21042;-69
2022/07/17 09:27:33;;;;;;;0.80;0.53;;;;;;;22.73;92.08;99635.52;1787143;79;21546;-70
2022/07/17 09:30:11;;;;;;;1.52;0.70;;;;;;;22.76;93.17;99622.08;1788774;79;22094;-66
2022/07/17 09:32:41;;;;;;;1.82;0.70;;;;;;;22.77;95.43;99634.11;1786101;79;21522;-67
2022/07/17 09:35:09;;;;;;;0.70;0.40;;;;;;;22.90;93.67;99633.09;1788194;79;21575;-71
2022/07/17 09:37:37;;;;;;;1.22;0.65;;;;;;;23.12;89.16;99635.87;1796813;79;20968;-69
2022/07/17 09:41:09;;;;;;;3.70;0.60;;;;;;;23.03;90.32;99625.86;1796387;79;20988;-68
2022/07/17 09:42:47;;;;;;;4.28;0.85;;;;;;;23.14;89.10;99635.69;1785962;79;21031;-70
2022/07/17 09:45:15;;;;;;;1.15;0.50;;;;;;;23.16;85.86;99634.69;1737593;79;21503;-71
2022/07/17 09:47:44;;;;;;;2.37;0.90;;;;;;;23.23;86.00;99645.11;1715111;82;21572;-68
2022/07/17 09:50:14;;;;;;;1.87;0.80;;;;;;;23.31;87.33;99639.67;1770435;79;21018;-72
2022/07/17 09:52:42;;;;;;;1.72;0.80;;;;;;;23.46;85.61;99636.83;1787379;79;21414;-70
2022/07/17 09:55:14;;;;;;;0.90;0.50;;;;;;;23.50;83.95;99631.20;1792482;79;21207;-73
2022/07/17 09:57:42;;;;;;;2.05;0.72;;;;;;;23.51;87.85;99626.58;1795128;79;20991;-71
2022/07/17 10:00:13;;;;;;;1.10;0.62;;;;;;;23.58;88.99;99629.97;1793985;79;21824;-69
2022/07/17 10:02:47;;;;;;;2.00;0.60;;;;;;;23.63;87.39;99636.58;1798071;78;21121;-68
2022/07/17 10:05:16;;;;;;;3.95;1.10;;;;;;;23.67;88.59;99625.32;1788368;79;21026;-74
2022/07/17 10:07:46;;;;;;;10.48;1.47;;;;;;;23.66;91.55;99624.51;1805145;79;21019;-70
2022/07/17 10:10:14;;;;;;;3.80;0.75;;;;;;;23.94;89.47;99624.79;1791066;79;21070;-68
2022/07/17 10:12:47;;;;;;;2.80;0.88;;;;;;;23.98;86.85;99628.40;1793410;79;21136;-70
2022/07/17 10:15:13;;;;;;;1.62;0.57;;;;;;;23.99;85.82;99625.77;1797694;79;21054;-71
2022/07/17 10:17:43;;;;;;;1.55;1.02;;;;;;;24.01;86.15;99621.14;1772883;79;21023;-71
2022/07/17 10:20:15;;;;;;;2.72;0.68;;;;;;;24.00;86.86;99620.95;1798477;79;21077;-70
2022/07/17 10:22:45;;;;;;;1.62;0.80;;;;;;;23.99;85.82;99624.36;1744195;80;21002;-71
2022/07/17 10:25:16;;;;;;;2.42;0.50;;;;;;;23.98;82.92;99620.55;1795165;79;21315;-72
2022/07/17 10:27:53;;;;;;;2.27;0.68;;;;;;;24.03;81.20;99616.72;1800130;79;21086;-70
2022/07/17 10:30:28;;;;;;;1.05;0.80;;;;;;;24.12;82.54;99616.23;1789990;79;21735;-69
2022/07/17 10:33:00;;;;;;;0.30;0.30;;;;;;;24.25;83.51;99615.20;1798661;79;20991;-70
2022/07/17 10:35:29;;;;;;;0.75;0.40;;;;;;;24.35;79.60;99618.34;1800515;79;21039;-71
2022/07/17 10:38:02;;;;;;;3.00;0.80;;;;;;;24.40;79.76;99613.68;1798722;79;21066;-71
2022/07/17 10:40:32;;;;;;;1.40;0.75;;;;;;;24.41;80.02;99610.45;1746147;79;20988;-71
2022/07/17 10:43:09;;;;;;;1.05;0.60;;;;;;;24.34;76.80;99612.53;1796797;79;20991;-69
2022/07/17 10:45:45;;;;;;;3.45;0.90;;;;;;;24.22;73.92;99601.96;1801022;79;21073;-71
2022/07/17 10:48:16;;;;;;;2.27;0.82;;;;;;;24.07;72.71;99603.41;1791384;79;21089;-71
2022/07/17 10:50:48;;;;;;;1.12;0.60;;;;;;;23.99;77.37;99605.27;1796716;79;21105;-72
2022/07/17 10:53:23;;;;;;;1.40;0.80;;;;;;;23.99;76.46;99607.48;1800460;79;20995;-70
2022/07/17 10:56:00;;;;;;;0.80;0.50;;;;;;;23.97;77.13;99600.68;1797812;79;21007;-70
2022/07/17 10:58:34;;;;;;;2.67;0.60;;;;;;;23.97;76.13;99607.71;1794773;78;21360;-71
2022/07/17 11:01:18;;;;;;;0.80;0.80;;;;;;;23.86;73.69;99608.56;1811287;78;21506;-71
2022/07/17 11:03:52;;;;;;;0.68;0.60;;;;;;;23.82;77.02;99606.37;1821935;77;21447;-70
2022/07/17 11:06:31;;;;;;;3.40;0.60;;;;;;;23.92;80.85;99603.30;1827887;77;21465;-71
2022/07/17 11:09:06;;;;;;;2.98;0.75;;;;;;;24.00;80.22;99597.85;1802893;77;20963;-68
2022/07/17 11:11:38;;;;;;;1.45;0.62;;;;;;;24.21;82.27;99596.12;1809780;77;20995;-71
2022/07/17 11:14:18;;;;;;;2.75;0.50;;;;;;;24.28;78.51;99596.08;1811158;77;20958;-71
2022/07/17 11:16:59;;;;;;;1.65;0.90;;;;;;;24.23;73.22;99600.73;1811058;77;21743;-69
2022/07/17 11:19:43;;;;;;;4.00;1.42;;;;;;;24.14;73.88;99608.19;1792959;78;21042;-70
2022/07/17 11:22:14;;;;;;;14.87;2.50;;;;;;;23.96;75.14;99608.31;1811379;78;20990;-70
2022/07/17 11:24:49;;;;;;;2.62;1.10;;;;;;;23.87;73.26;99614.38;1723040;81;21117;-71
2022/07/17 11:27:31;;;;;;;5.60;1.35;;;;;;;23.66;74.53;99622.33;1726217;81;21072;-70
2022/07/17 11:30:04;;;;;;;3.47;1.07;;;;;;;23.62;75.74;99622.34;1726655;81;21521;-70
2022/07/17 11:32:35;;;;;;;1.10;0.70;;;;;;;23.55;80.64;99621.76;1746100;81;21032;-69
2022/07/17 11:35:15;;;;;;;1.02;0.65;;;;;;;23.46;81.86;99622.19;1745149;81;21077;-68
2022/07/17 11:37:43;;;;;;;2.90;0.70;;;;;;;23.41;81.93;99630.22;1745590;81;21157;-72